»·PEaware :: WAT380 KIWA-KLAX

WAT380 :: KIWA-KLAX

FLIGHT INFORMATION

Flight Status: Arrived
Operator:
Walker Air Transport
More flights by this operator :: More flights under this callsign
Pilot: Spencer M. (27733)
Aircraft: MCDONNELL-DOUGLAS MD-88
(MD88)
More flights by this aircraft type
Origin: KIWA Williams Gateway
United States
Destination: KLAX Los Angeles Intl
United States
More flights between these airports :: More routes between these airports
Route: IZZZO7 MESSI ESTWD HLYWD1
File this flight plan on PilotEdge
Remarks:
Altitude:
(Current/Filed)
32,000ft
Speed:
(Current/Filed)
440kts
Departed: 29-Nov-21 09:01 PM
Arrived: 29-Nov-21 09:59 PM
Distance/Time
Traveled:
338nm/0:58
Distance/Time
To Go:
Arrived

Flight Plot

Page will automatically refresh every two minutes.

Flight plan parsing failed; only flown route is shown


Map Options




Map Legend


Flown Route
Filed Route
Departure Airport
Arrival Airport
Navaid (VOR, NDB)
Fix

Horizontal Profiles

Position Reports

Time Latitude Longitude Heading Altitude Ground
Speed
29-Nov-21 20:37 33.306340 -111.668115 270 1355ft 0kts
29-Nov-21 20:38 33.306340 -111.668115 270 1355ft 0kts
29-Nov-21 20:39 33.306340 -111.668115 270 1355ft 0kts
29-Nov-21 20:40 33.306340 -111.668115 270 1355ft 0kts
29-Nov-21 20:41 33.306340 -111.668115 270 1355ft 0kts
29-Nov-21 20:42 33.306340 -111.668115 270 1355ft 0kts
29-Nov-21 20:43 33.306340 -111.668115 270 1355ft 0kts
29-Nov-21 20:44 33.306340 -111.668115 270 1355ft 0kts
29-Nov-21 20:45 33.306340 -111.668115 270 1355ft 0kts
29-Nov-21 20:46 33.306340 -111.668115 270 1355ft 0kts
29-Nov-21 20:47 33.306340 -111.668115 270 1355ft 0kts
29-Nov-21 20:48 33.306340 -111.668115 270 1355ft 0kts
29-Nov-21 20:49 33.306340 -111.668115 270 1355ft 0kts
29-Nov-21 20:50 33.306340 -111.668115 270 1355ft 0kts
29-Nov-21 20:51 33.306486 -111.667829 211 1356ft 2kts
29-Nov-21 20:52 33.306988 -111.668042 104 1355ft 2kts
29-Nov-21 20:53 33.307000 -111.668205 90 1355ft 0kts
29-Nov-21 20:54 33.306999 -111.667996 89 1355ft 3kts
29-Nov-21 20:56 33.306916 -111.662548 114 1363ft 19kts
29-Nov-21 20:57 33.302918 -111.657693 135 1368ft 21kts
29-Nov-21 20:58 33.298203 -111.652193 135 1374ft 25kts
29-Nov-21 20:59 33.296724 -111.650043 73 1377ft 0kts
29-Nov-21 21:00 33.298260 -111.650240 318 1377ft 14kts
29-Nov-21 21:01 33.320072 -111.675571 313 1606ft 186kts
29-Nov-21 21:02 33.360864 -111.725520 313 3603ft 207kts
29-Nov-21 21:03 33.404275 -111.781921 291 5562ft 258kts
29-Nov-21 21:04 33.416141 -111.873485 278 8054ft 290kts
29-Nov-21 21:05 33.423333 -111.971857 275 10468ft 319kts
29-Nov-21 21:06 33.428566 -112.085351 273 12583ft 353kts
29-Nov-21 21:07 33.433340 -112.204625 273 14954ft 367kts
29-Nov-21 21:08 33.438460 -112.328512 273 17064ft 380kts
29-Nov-21 21:09 33.443876 -112.456320 272 18987ft 389kts
29-Nov-21 21:10 33.449555 -112.587156 272 20753ft 397kts
29-Nov-21 21:11 33.451725 -112.720421 270 21639ft 402kts
29-Nov-21 21:12 33.469378 -112.852386 294 23105ft 411kts
29-Nov-21 21:13 33.514728 -112.979256 291 24399ft 418kts
29-Nov-21 21:14 33.559513 -113.109462 291 25548ft 425kts
29-Nov-21 21:15 33.604491 -113.240127 291 26590ft 431kts
29-Nov-21 21:15 33.643439 -113.352979 292 27391ft 435kts
29-Nov-21 21:17 33.697950 -113.510411 292 28350ft 442kts
29-Nov-21 21:18 33.745713 -113.647895 292 29075ft 446kts
29-Nov-21 21:19 33.782680 -113.753991 292 29566ft 449kts
29-Nov-21 21:20 33.830346 -113.893070 292 30250ft 449kts
29-Nov-21 21:20 33.869589 -114.008895 292 30823ft 449kts
29-Nov-21 21:22 33.915992 -114.174440 280 31582ft 447kts
29-Nov-21 21:23 33.939737 -114.321241 281 32060ft 442kts
29-Nov-21 21:24 33.963713 -114.466826 281 32074ft 443kts
29-Nov-21 21:24 33.983829 -114.588120 281 32073ft 443kts
29-Nov-21 21:25 34.008268 -114.734559 281 32074ft 444kts
29-Nov-21 21:26 34.032829 -114.880614 281 32073ft 444kts
29-Nov-21 21:28 34.061449 -115.050946 281 32083ft 444kts
29-Nov-21 21:28 34.080799 -115.172736 281 32102ft 444kts
29-Nov-21 21:29 34.104089 -115.319037 281 32115ft 444kts
29-Nov-21 21:30 34.127571 -115.465481 281 32122ft 444kts
29-Nov-21 21:31 34.151194 -115.611741 281 32129ft 444kts
29-Nov-21 21:32 34.157716 -115.761581 261 32137ft 444kts
29-Nov-21 21:33 34.142531 -115.909975 263 32128ft 444kts
29-Nov-21 21:34 34.128029 -116.058260 263 32115ft 445kts
29-Nov-21 21:35 34.113334 -116.206470 263 32108ft 445kts
29-Nov-21 21:36 34.098539 -116.352461 262 30850ft 433kts
29-Nov-21 21:37 34.083156 -116.495052 262 28571ft 425kts
29-Nov-21 21:38 34.068701 -116.636002 264 26361ft 425kts
29-Nov-21 21:39 34.055401 -116.778413 263 23674ft 426kts
29-Nov-21 21:40 34.041366 -116.919634 261 21310ft 416kts
29-Nov-21 21:41 34.023898 -117.054198 262 19599ft 393kts
29-Nov-21 21:42 34.008626 -117.182983 262 17556ft 382kts
29-Nov-21 21:43 33.993776 -117.307193 262 15848ft 364kts
29-Nov-21 21:44 33.979746 -117.426151 263 13991ft 354kts
29-Nov-21 21:45 33.980760 -117.541178 285 12344ft 336kts
29-Nov-21 21:46 34.000611 -117.648293 283 10685ft 310kts
29-Nov-21 21:47 34.001275 -117.746077 263 8995ft 276kts
29-Nov-21 21:48 33.991968 -117.835684 263 7388ft 266kts
29-Nov-21 21:49 33.983198 -117.925627 263 6224ft 263kts
29-Nov-21 21:50 33.977583 -118.008566 259 5773ft 232kts
29-Nov-21 21:51 33.968058 -118.082572 262 5175ft 210kts
29-Nov-21 21:52 33.961246 -118.147675 263 4011ft 178kts
29-Nov-21 21:53 33.955985 -118.199568 263 3050ft 141kts
29-Nov-21 21:54 33.951006 -118.248402 263 2385ft 154kts
29-Nov-21 21:55 33.945843 -118.299831 263 1491ft 149kts
29-Nov-21 21:56 33.941050 -118.346874 261 673ft 139kts
29-Nov-21 21:57 33.936326 -118.392735 264 111ft 129kts
29-Nov-21 21:58 33.933815 -118.406927 119 128ft 7kts
29-Nov-21 21:59 33.933846 -118.405136 82 126ft 13kts
29-Nov-21 22:00 33.934419 -118.399592 82 118ft 19kts
29-Nov-21 22:01 33.935082 -118.392982 83 108ft 17kts
29-Nov-21 22:02 33.934897 -118.389239 167 106ft 0kts
29-Nov-21 22:03 33.934461 -118.389151 172 106ft 7kts
29-Nov-21 22:04 33.933914 -118.389070 172 106ft 0kts

Navigation Log

Ident Type
Flight plan parsing failed, navigation log unavailable